Flight Track Log - Related Links

Times and Time Zones

All times are in EDT time to prevent confusion due to time zone crossing. See the DAL3691 flight status page for this flight to view local times or setup timezone preferences in your user account.

Time Position Orientation Groundspeed Altitude Reporting Facility
EDT Latitude Longitude Course Direction KTS MPH feet Rate Location/Type
Tue 11:00:42 AM 36.8847 -76.2150 225° Southwest 147 169 500  Level Washington Center
Tue 11:01:17 AM 36.8658 -76.2383 225° Southwest 171 197 1,700 1,642 Climbing Washington Center
Tue 11:02:17 AM 36.8611 -76.3161 266° West 245 282 3,100 2,132 Climbing Washington Center
Tue 11:03:18 AM 36.8542 -76.4069 265° West 267 307 6,000 1,918 Climbing Washington Center
Tue 11:04:19 AM 36.8578 -76.5006 273° West 276 318 7,000 687 Climbing Washington Center
Tue 11:05:29 AM 36.8883 -76.5864 294° West 277 319 7,500 1,431 Climbing Washington Center
Tue 11:06:29 AM 36.9169 -76.6753 292° West 272 313 10,100 1,866 Climbing Washington Center
Tue 11:07:28 AM 36.9494 -76.7719 293° West 277 319 11,200 1,550 Climbing Washington Center
Tue 11:08:29 AM 36.9858 -76.8789 293° West 309 356 13,200 1,884 Climbing Washington Center
Tue 11:09:29 AM 37.0219 -76.9889 292° West 332 382 15,000 1,700 Climbing Washington Center
Tue 11:10:29 AM 37.0542 -77.1039 289° West 342 394 16,600 1,537 Climbing Washington Center
Tue 11:11:30 AM 37.0756 -77.2242 283° West 348 400 18,100 1,563 Climbing Washington Center
Tue 11:12:28 AM 37.0967 -77.3392 283° West 348 400 19,700 1,576 Climbing Washington Center
Tue 11:13:28 AM 37.1178 -77.4594 282° West 353 406 21,200 1,450 Climbing Washington Center
Tue 11:14:28 AM 37.1389 -77.5797 282° West 358 412 22,600 893 Climbing Washington Center
Tue 11:15:29 AM 37.1597 -77.7053 282° West 358 412 23,000 541 Climbing Washington Center
Tue 11:16:30 AM 37.1928 -77.8314 288° West 363 418 23,700 694 Climbing Washington Center
Tue 11:17:30 AM 37.2553 -77.9456 305° West 378 435 24,400 712 Climbing Washington Center
Tue 11:18:28 AM 37.3219 -78.0597 306° West 398 458 25,100 756 Climbing Washington Center
Tue 11:19:29 AM 37.3964 -78.1850 307° West 403 464 25,900 744 Climbing Washington Center
Tue 11:20:29 AM 37.4586 -78.2997 304° West 408 470 26,600 605 Climbing Washington Center
Tue 11:21:28 AM 37.5247 -78.4147 306° West 408 470 27,100 504 Climbing Washington Center
Tue 11:22:28 AM 37.5764 -78.5292 300° West 413 475 27,600 450 Climbing Washington Center
Tue 11:23:28 AM 37.6125 -78.6669 288° West 407 468 28,000 198 Climbing Washington Center
Tue 11:24:29 AM 37.6506 -78.8050 289° West 412 474 28,000  Level Washington Center
Tue 11:25:29 AM 37.6900 -78.9589 288° West 425 489 28,000  Level Washington Center
Tue 11:26:30 AM 37.7278 -79.0997 289° West 425 489 28,000  Level Washington Center
Tue 11:27:28 AM 37.7653 -79.2381 289° West 425 489 28,000  Level Washington Center
Tue 11:28:28 AM 37.7969 -79.3658 287° West 425 489 28,000  Level Washington Center
Tue 11:29:29 AM 37.8339 -79.5094 288° West 425 489 28,000  Level Washington Center
Tue 11:30:30 AM 37.8689 -79.6533 287° West 425 489 28,000  Level Washington Center
Tue 11:31:30 AM 37.9092 -79.8108 288° West 425 489 28,000  Level Washington Center
Tue 11:32:28 AM 37.9436 -79.9550 287° West 425 489 28,000  Level Washington Center
Tue 11:34:16 AM 38.0042 -80.1936 288° West 426 490 28,000  Level Indianapolis Center
Tue 11:35:18 AM 38.0386 -80.3339 287° West 430 495 28,000  Level Indianapolis Center
Tue 11:36:19 AM 38.0811 -80.5022 288° West 427 491 28,000  Level Indianapolis Center
Tue 11:37:21 AM 38.1164 -80.6478 287° West 428 493 28,000  Level Indianapolis Center
Tue 11:38:23 AM 38.1533 -80.7922 288° West 428 493 28,000  Level Indianapolis Center
Tue 11:39:24 AM 38.2508 -80.8878 322° Northwest 440 506 28,000  Level Indianapolis Center
Tue 11:40:26 AM 38.3581 -80.9661 330° Northwest 445 512 28,000  Level Indianapolis Center
Tue 11:41:28 AM 38.4647 -81.0453 330° Northwest 445 512 28,000  Level Indianapolis Center
Tue 11:42:29 AM 38.5722 -81.1242 330° Northwest 448 516 28,000  Level Indianapolis Center
Tue 11:43:31 AM 38.6800 -81.2031 330° Northwest 449 517 28,000  Level Indianapolis Center
Tue 11:44:33 AM 38.8081 -81.2986 330° Northwest 449 517 28,000  Level Indianapolis Center
Tue 11:45:35 AM 38.9136 -81.3781 330° Northwest 446 513 28,000  Level Indianapolis Center
Tue 11:46:36 AM 39.0206 -81.4567 330° Northwest 446 513 28,000  Level Indianapolis Center
Tue 11:47:38 AM 39.1281 -81.5372 330° Northwest 446 513 28,000  Level Indianapolis Center
Tue 11:48:40 AM 39.2361 -81.6175 330° Northwest 448 516 28,000  Level Indianapolis Center
Tue 11:49:42 AM 39.3650 -81.7136 330° Northwest 447 514 28,000  Level Indianapolis Center
Tue 11:50:43 AM 39.4836 -81.7706 340° North 456 525 28,000  Level Indianapolis Center
Tue 11:51:45 AM 39.6011 -81.8214 342° North 450 518 28,000  Level Indianapolis Center
Tue 11:52:47 AM 39.7211 -81.8672 344° North 450 518 28,000  Level Indianapolis Center
Tue 11:53:49 AM 39.8442 -81.8881 353° North 447 514 28,000  Level Indianapolis Center
Tue 11:54:50 AM 39.9778 -81.9119 352° North 450 518 28,000  Level Indianapolis Center
Tue 11:55:52 AM 40.1014 -81.9339 352° North 446 513 28,000  Level Indianapolis Center
Tue 11:56:54 AM 40.2269 -81.9569 352° North 450 518 28,000  Level Indianapolis Center
Tue 11:57:55 AM 40.3508 -81.9781 353° North 446 513 28,000  Level Indianapolis Center
Tue 11:58:57 AM 40.4753 -82.0025 352° North 447 514 28,000  Level Indianapolis Center
Tue 11:59:59 AM 40.5889 -82.0717 335° Northwest 445 512 28,000  Level Indianapolis Center
Tue 12:01:00 PM 40.7197 -82.1506 335° Northwest 440 506 28,000  Level Indianapolis Center
Tue 12:02:02 PM 40.8322 -82.2200 335° Northwest 440 506 28,000 -242 Level Indianapolis Center
Tue 12:03:04 PM 40.9450 -82.2900 335° Northwest 441 507 27,500 -927 Descending Indianapolis Center
Tue 12:04:05 PM 41.0575 -82.3594 335° Northwest 439 505 26,100 -1,366 Descending Indianapolis Center
Tue 12:05:07 PM 41.1686 -82.4281 335° Northwest 435 501 24,700 -1,790 Descending Indianapolis Center
Tue 12:06:09 PM 41.2767 -82.4950 335° Northwest 427 491 22,400 -2,205 Descending Indianapolis Center
Tue 12:07:04 PM 41.3656 -82.5558 333° Northwest 420 483 20,400 -2,296 Descending Cleveland Center
Tue 12:08:04 PM 41.4644 -82.6169 335° Northwest 407 468 18,000 -2,400 Descending Cleveland Center
Tue 12:08:34 PM 41.5222 -82.6494 337° Northwest 392 451 16,800 -2,200 Descending Cleveland Center
Tue 12:09:04 PM 41.5633 -82.6783 332° Northwest 394 453 15,800 -2,507 Descending Cleveland Center
Tue 12:09:41 PM 41.6336 -82.7250 334° Northwest 383 441 14,000 -2,327 Descending Cleveland Center
Tue 12:10:42 PM 41.7283 -82.7839 335° Northwest 372 428 12,000 -984 Descending Cleveland Center
Tue 12:11:43 PM 41.8036 -82.8728 319° Northwest 355 409 12,000  Level Cleveland Center
Tue 12:12:50 PM 41.8869 -82.9736 318° Northwest 356 410 12,000  Level Cleveland Center
Tue 12:13:50 PM 41.9603 -83.0628 318° Northwest 357 411 12,000  Level Cleveland Center
Tue 12:14:51 PM 42.0353 -83.1525 318° Northwest 359 413 12,000  Level Cleveland Center
Tue 12:15:46 PM 42.1003 -83.2278 319° Northwest 337 388 12,000 -310 Level Cleveland Center
Tue 12:16:47 PM 42.1667 -83.2417 351° North 247 284 11,400 -1,125 Descending Cleveland Center
Tue 12:17:54 PM 42.2386 -83.1972 25° Northeast 254 292 9,600 -1,500 Descending Cleveland Center
Tue 12:18:55 PM 42.3003 -83.1492 30° Northeast 250 288 8,200 -1,180 Descending Cleveland Center
Tue 12:19:56 PM 42.3572 -83.1122 26° Northeast 224 258 7,200 -1,442 Descending Cleveland Center
Tue 12:21:04 PM 42.3828 -83.1806 297° West 191 220 5,100 -1,674 Descending Cleveland Center
Tue 12:22:05 PM 42.3525 -83.2356 233° Southwest 191 220 3,600 -1,293 Descending Cleveland Center
Tue 12:23:00 PM 42.3078 -83.2703 210° Southwest 196 226 2,600 -984 Descending Cleveland Center
Tue 12:24:07 PM 42.2611 -83.3075 211° Southwest 150 173 1,600 -787 Descending Cleveland Center
Tue 12:25:02 PM 42.2336 -83.3258 206° Southwest 132 152 1,000 -655 Descending Cleveland Center

Login

Don't have an account? Register now (free) for customized features, flight alerts, and more!